Aviation Digital Data Service (ADDS)

Output produced by METARs form (1011 UTC 01 October 2014)
found at http://aviationweather.gov/adds/metars/
 
KLCH 010858Z 0109/0206 VRB03KT 4SM BR SCT015 BKN100 
     TEMPO 0109/0113 -SHRA BKN015 OVC100 
     FM011400 15008KT P6SM BKN025